Time;durP1;ratioP1;P1;durP2;ratioP2;P2;SDS_P1;SDS_P2;PMS_P1;PMS_P2;Temp;Humidity;BMP_temperature;BMP_pressure;BME280_temperature;BME280_humidity;BME280_pressure;Samples;Min_cycle;Max_cycle;Signal;HPM_P1;HPM_P2
2022/06/07 00:00:54;;;;;;;;;;;;;;;;;;5124713;27;19959;-81
2022/06/07 00:03:21;;;;;;;;;;;;;;;;;;5127594;27;19923;-80
2022/06/07 00:05:48;;;;;;;;;;;;;;;;;;5122142;27;19924;-80
2022/06/07 00:08:16;;;;;;;;;;;;;;;;;;5124646;27;19923;-80
2022/06/07 00:10:42;;;;;;;;;;;;;;;;;;5125787;27;20270;-80
2022/06/07 00:13:08;;;;;;;;;;;;;;;;;;5127353;27;20165;-80
2022/06/07 00:15:34;;;;;;;;;;;;;;;;;;5111548;27;20698;-80
2022/06/07 00:18:00;;;;;;;;;;;;;;;;;;5108615;27;19923;-81
2022/06/07 00:20:26;;;;;;;;;;;;;;;;;;5126507;27;19970;-81
2022/06/07 00:22:52;;;;;;;;;;;;;;;;;;5127135;27;19930;-80
2022/06/07 00:25:18;;;;;;;;;;;;;;;;;;5125997;27;20037;-80
2022/06/07 00:27:44;;;;;;;;;;;;;;;;;;5126114;27;19953;-81
2022/06/07 00:30:09;;;;;;;;;;;;;;;;;;5107407;27;19936;-81
2022/06/07 00:32:37;;;;;;;;;;;;;;;;;;5110439;27;20034;-79
2022/06/07 00:35:03;;;;;;;;;;;;;;;;;;5125000;27;19923;-80
2022/06/07 00:37:29;;;;;;;;;;;;;;;;;;5126706;27;19934;-80
2022/06/07 00:39:55;;;;;;;;;;;;;;;;;;5127531;27;20708;-81
2022/06/07 00:42:20;;;;;;;;;;;;;;;;;;5109694;27;19978;-80
2022/06/07 00:44:46;;;;;;;;;;;;;;;;;;5111811;27;19923;-80
2022/06/07 00:47:12;;;;;;;;;;;;;;;;;;5114909;27;20022;-80
2022/06/07 00:49:38;;;;;;;;;;;;;;;;;;5116163;27;19966;-82
2022/06/07 00:52:04;;;;;;;;;;;;;;;;;;5115390;27;19958;-81
2022/06/07 00:54:30;;;;;;;;;;;;;;;;;;5131062;27;19923;-82
2022/06/07 00:56:57;;;;;;;;;;;;;;;;;;5115399;27;19923;-81
2022/06/07 00:59:23;;;;;;;;;;;;;;;;;;5113254;27;20368;-81
2022/06/07 01:01:50;;;;;;;;;;;;;;;;;;5133171;27;19966;-80
2022/06/07 01:04:16;;;;;;;;;;;;;;;;;;5129089;27;20010;-81
2022/06/07 01:12:11;;;;;;;;;;;;;;;;;;5133165;27;19959;-80
2022/06/07 01:14:37;;;;;;;;;;;;;;;;;;5113295;27;19958;-81
2022/06/07 01:17:03;;;;;;;;;;;;;;;;;;5127798;27;19927;-81
2022/06/07 01:19:29;;;;;;;;;;;;;;;;;;5113380;27;19938;-80
2022/06/07 01:21:55;;;;;;;;;;;;;;;;;;5130340;27;19930;-81
2022/06/07 01:24:21;;;;;;;;;;;;;;;;;;5114246;27;19923;-79
2022/06/07 01:26:47;;;;;;;;;;;;;;;;;;5128607;27;19948;-79
2022/06/07 01:29:14;;;;;;;;;;;;;;;;;;5127229;27;19975;-80
2022/06/07 01:31:40;;;;;;;;;;;;;;;;;;5129829;27;19927;-80
2022/06/07 01:34:06;;;;;;;;;;;;;;;;;;5129788;27;19948;-80
2022/06/07 01:36:32;;;;;;;;;;;;;;;;;;5115416;27;20313;-80
2022/06/07 01:41:55;;;;;;;;;;;;;;;;;;5128818;27;20563;-80
2022/06/07 01:44:21;;;;;;;;;;;;;;;;;;5113826;27;19966;-79
2022/06/07 01:46:47;;;;;;;;;;;;;;;;;;5130284;27;19966;-80
2022/06/07 01:49:13;;;;;;;;;;;;;;;;;;5115045;27;19947;-80
2022/06/07 01:51:39;;;;;;;;;;;;;;;;;;5130359;27;19927;-81
2022/06/07 01:54:05;;;;;;;;;;;;;;;;;;5131603;27;19923;-81
2022/06/07 01:56:31;;;;;;;;;;;;;;;;;;5110498;27;19983;-82
2022/06/07 01:58:57;;;;;;;;;;;;;;;;;;5127938;27;19927;-83
2022/06/07 02:01:23;;;;;;;;;;;;;;;;;;5129753;27;19927;-80
2022/06/07 02:03:49;;;;;;;;;;;;;;;;;;5129788;27;19978;-82
2022/06/07 02:06:15;;;;;;;;;;;;;;;;;;5108863;27;19937;-81
2022/06/07 02:08:41;;;;;;;;;;;;;;;;;;5125292;27;20022;-81
2022/06/07 02:11:07;;;;;;;;;;;;;;;;;;5122241;27;19923;-80
2022/06/07 02:13:33;;;;;;;;;;;;;;;;;;5129856;27;20434;-80
2022/06/07 02:15:58;;;;;;;;;;;;;;;;;;5122918;27;20262;-81
2022/06/07 02:18:24;;;;;;;;;;;;;;;;;;5128103;27;20340;-79
2022/06/07 02:20:50;;;;;;;;;;;;;;;;;;5113391;27;19937;-81
2022/06/07 02:23:16;;;;;;;;;;;;;;;;;;5111548;27;19929;-80
2022/06/07 02:25:42;;;;;;;;;;;;;;;;;;5131382;27;19923;-80
2022/06/07 02:28:08;;;;;;;;;;;;;;;;;;5113599;27;20144;-80
2022/06/07 02:30:34;;;;;;;;;;;;;;;;;;5131575;27;19923;-80
2022/06/07 02:33:00;;;;;;;;;;;;;;;;;;5109348;27;19924;-82
2022/06/07 02:35:26;;;;;;;;;;;;;;;;;;5126956;27;20366;-80
2022/06/07 02:37:52;;;;;;;;;;;;;;;;;;5129241;27;20354;-82
2022/06/07 02:40:18;;;;;;;;;;;;;;;;;;5125262;27;19967;-81
2022/06/07 02:42:44;;;;;;;;;;;;;;;;;;5114838;27;20163;-80
2022/06/07 02:45:11;;;;;;;;;;;;;;;;;;5126771;27;19930;-81
2022/06/07 02:47:37;;;;;;;;;;;;;;;;;;5130905;27;20014;-79
2022/06/07 02:50:02;;;;;;;;;;;;;;;;;;5127153;27;20014;-81
2022/06/07 02:52:28;;;;;;;;;;;;;;;;;;5131036;27;19927;-81
2022/06/07 02:54:54;;;;;;;;;;;;;;;;;;5128917;27;20331;-82
2022/06/07 02:57:20;;;;;;;;;;;;;;;;;;5112943;27;19976;-81
2022/06/07 02:59:46;;;;;;;;;;;;;;;;;;5112844;27;19923;-81
2022/06/07 03:02:12;;;;;;;;;;;;;;;;;;5129113;27;19923;-81
2022/06/07 03:04:38;;;;;;;;;;;;;;;;;;5126578;27;19923;-80
2022/06/07 03:07:04;;;;;;;;;;;;;;;;;;5128891;27;19923;-81
2022/06/07 03:09:30;;;;;;;;;;;;;;;;;;5127098;27;19919;-81
2022/06/07 03:11:56;;;;;;;;;;;;;;;;;;5114797;27;19927;-80
2022/06/07 03:14:22;;;;;;;;;;;;;;;;;;5108419;27;19938;-80
2022/06/07 03:16:48;;;;;;;;;;;;;;;;;;5113237;27;20137;-80
2022/06/07 03:19:14;;;;;;;;;;;;;;;;;;5111327;27;19933;-80
2022/06/07 03:21:40;;;;;;;;;;;;;;;;;;5129555;27;20056;-81
2022/06/07 03:24:06;;;;;;;;;;;;;;;;;;5127185;27;19972;-80
2022/06/07 03:26:32;;;;;;;;;;;;;;;;;;5127001;27;20310;-80
2022/06/07 03:28:58;;;;;;;;;;;;;;;;;;5128420;27;20293;-80
2022/06/07 03:31:24;;;;;;;;;;;;;;;;;;5124523;27;19923;-80
2022/06/07 03:33:50;;;;;;;;;;;;;;;;;;5111722;27;19949;-79
2022/06/07 03:36:16;;;;;;;;;;;;;;;;;;5127230;27;20170;-80
2022/06/07 03:38:42;;;;;;;;;;;;;;;;;;5113975;27;19923;-80
2022/06/07 03:41:08;;;;;;;;;;;;;;;;;;5124497;27;19923;-81
2022/06/07 03:43:34;;;;;;;;;;;;;;;;;;5111992;27;19924;-80
2022/06/07 03:46:00;;;;;;;;;;;;;;;;;;5111338;27;19930;-79
2022/06/07 03:48:26;;;;;;;;;;;;;;;;;;5109836;27;19923;-79
2022/06/07 03:50:51;;;;;;;;;;;;;;;;;;5124386;27;20014;-79
2022/06/07 03:53:17;;;;;;;;;;;;;;;;;;5128262;27;19962;-81
2022/06/07 03:55:44;;;;;;;;;;;;;;;;;;5111557;27;19927;-80
2022/06/07 03:58:10;;;;;;;;;;;;;;;;;;5126467;27;19930;-81
2022/06/07 04:00:36;;;;;;;;;;;;;;;;;;5128551;27;19923;-80
2022/06/07 04:03:02;;;;;;;;;;;;;;;;;;5111127;27;20931;-81
2022/06/07 04:05:28;;;;;;;;;;;;;;;;;;5131530;27;20326;-80
2022/06/07 04:08:12;;;;;;;;;;;;;;;;;;5127763;27;19931;-79
2022/06/07 04:10:38;;;;;;;;;;;;;;;;;;5125089;27;19987;-80
2022/06/07 04:13:04;;;;;;;;;;;;;;;;;;5108423;27;19927;-80
2022/06/07 04:15:30;;;;;;;;;;;;;;;;;;5125879;27;19938;-81
2022/06/07 04:17:56;;;;;;;;;;;;;;;;;;5119402;27;20426;-80
2022/06/07 04:20:22;;;;;;;;;;;;;;;;;;5127514;27;20373;-79
2022/06/07 04:22:48;;;;;;;;;;;;;;;;;;5125464;27;20358;-79
2022/06/07 04:25:14;;;;;;;;;;;;;;;;;;5103859;27;20281;-79
2022/06/07 04:27:40;;;;;;;;;;;;;;;;;;5129344;27;19955;-81
2022/06/07 04:30:06;;;;;;;;;;;;;;;;;;5128417;27;19945;-80
2022/06/07 04:32:32;;;;;;;;;;;;;;;;;;5111768;27;19927;-79
2022/06/07 04:34:58;;;;;;;;;;;;;;;;;;5123284;27;19968;-78
2022/06/07 04:37:24;;;;;;;;;;;;;;;;;;5109716;27;20053;-81
2022/06/07 04:39:50;;;;;;;;;;;;;;;;;;5112767;27;19927;-80
2022/06/07 04:42:16;;;;;;;;;;;;;;;;;;5130640;27;20344;-79
2022/06/07 04:44:42;;;;;;;;;;;;;;;;;;5121483;27;20013;-78
2022/06/07 04:47:08;;;;;;;;;;;;;;;;;;5122521;27;20381;-79
2022/06/07 04:49:35;;;;;;;;;;;;;;;;;;5128522;27;19963;-81
2022/06/07 04:52:01;;;;;;;;;;;;;;;;;;5126248;27;19923;-81
2022/06/07 04:54:27;;;;;;;;;;;;;;;;;;5128076;27;20392;-81
2022/06/07 04:56:53;;;;;;;;;;;;;;;;;;5106597;27;19983;-82
2022/06/07 04:59:19;;;;;;;;;;;;;;;;;;5112518;27;19934;-81
2022/06/07 05:01:45;;;;;;;;;;;;;;;;;;5105090;27;19975;-81
2022/06/07 05:04:11;;;;;;;;;;;;;;;;;;5127367;27;20029;-78
2022/06/07 05:06:37;;;;;;;;;;;;;;;;;;5124859;27;20255;-80
2022/06/07 05:09:03;;;;;;;;;;;;;;;;;;5110020;27;20045;-83
2022/06/07 05:11:29;;;;;;;;;;;;;;;;;;5109150;27;20760;-82
2022/06/07 05:13:55;;;;;;;;;;;;;;;;;;5108103;27;20282;-85
2022/06/07 05:16:21;;;;;;;;;;;;;;;;;;5120112;27;19931;-88
2022/06/07 05:18:47;;;;;;;;;;;;;;;;;;5128155;27;19931;-91
2022/06/07 05:21:13;;;;;;;;;;;;;;;;;;5129386;27;19923;-90
2022/06/07 05:23:39;;;;;;;;;;;;;;;;;;5126440;27;19934;-87
2022/06/07 05:26:05;;;;;;;;;;;;;;;;;;5130428;27;19963;-83
2022/06/07 05:28:31;;;;;;;;;;;;;;;;;;5112960;27;19934;-85
2022/06/07 05:30:57;;;;;;;;;;;;;;;;;;5124106;27;20458;-83
2022/06/07 05:33:23;;;;;;;;;;;;;;;;;;5115178;27;19965;-83
2022/06/07 05:35:48;;;;;;;;;;;;;;;;;;5131862;27;19927;-83
2022/06/07 05:38:15;;;;;;;;;;;;;;;;;;5118818;27;19931;-85
2022/06/07 05:40:41;;;;;;;;;;;;;;;;;;5119010;27;19945;-85
2022/06/07 05:43:07;;;;;;;;;;;;;;;;;;5135320;27;20010;-85
2022/06/07 05:45:33;;;;;;;;;;;;;;;;;;5125422;27;19965;-84
2022/06/07 05:47:59;;;;;;;;;;;;;;;;;;5123573;27;19946;-84
2022/06/07 05:50:25;;;;;;;;;;;;;;;;;;5123484;27;19929;-84
2022/06/07 05:52:51;;;;;;;;;;;;;;;;;;5122324;27;20311;-85
2022/06/07 05:55:17;;;;;;;;;;;;;;;;;;5109715;27;19927;-89
2022/06/07 05:57:50;;;;;;;;;;;;;;;;;;5128208;27;20381;-85
2022/06/07 06:00:16;;;;;;;;;;;;;;;;;;5128684;27;19946;-86
2022/06/07 06:02:42;;;;;;;;;;;;;;;;;;5108807;27;19920;-86
2022/06/07 06:05:08;;;;;;;;;;;;;;;;;;5136790;27;19931;-84
2022/06/07 06:07:34;;;;;;;;;;;;;;;;;;5117709;27;19963;-84
2022/06/07 06:12:44;;;;;;;;;;;;;;;;;;5120950;27;20358;-84
2022/06/07 06:15:10;;;;;;;;;;;;;;;;;;5129414;27;19923;-84
2022/06/07 06:17:36;;;;;;;;;;;;;;;;;;5132082;27;19923;-83
2022/06/07 06:20:02;;;;;;;;;;;;;;;;;;5138916;27;19927;-83
2022/06/07 06:22:28;;;;;;;;;;;;;;;;;;5124019;27;19923;-82
2022/06/07 06:24:54;;;;;;;;;;;;;;;;;;5122023;27;19927;-83
2022/06/07 06:27:21;;;;;;;;;;;;;;;;;;5124914;27;19934;-84
2022/06/07 06:29:47;;;;;;;;;;;;;;;;;;5126825;27;19930;-83
2022/06/07 06:32:13;;;;;;;;;;;;;;;;;;5131211;27;19927;-84
2022/06/07 06:34:39;;;;;;;;;;;;;;;;;;5139026;27;20685;-85
2022/06/07 06:37:06;;;;;;;;;;;;;;;;;;5116611;27;19923;-85
2022/06/07 06:39:32;;;;;;;;;;;;;;;;;;5118941;27;19975;-84
2022/06/07 06:41:58;;;;;;;;;;;;;;;;;;5118589;27;20019;-84
2022/06/07 06:44:24;;;;;;;;;;;;;;;;;;5117175;27;19923;-83
2022/06/07 06:46:50;;;;;;;;;;;;;;;;;;5100273;27;19997;-83
2022/06/07 06:49:18;;;;;;;;;;;;;;;;;;5120714;27;19934;-83
2022/06/07 06:51:44;;;;;;;;;;;;;;;;;;5117157;27;20269;-83
2022/06/07 06:54:11;;;;;;;;;;;;;;;;;;5103678;27;20010;-84
2022/06/07 06:56:37;;;;;;;;;;;;;;;;;;5116925;27;20413;-83
2022/06/07 06:59:03;;;;;;;;;;;;;;;;;;5118192;27;19934;-84
2022/06/07 07:01:31;;;;;;;;;;;;;;;;;;5140891;27;19927;-83
2022/06/07 07:03:57;;;;;;;;;;;;;;;;;;5134075;27;19923;-84
2022/06/07 07:06:23;;;;;;;;;;;;;;;;;;5145473;27;19930;-86
2022/06/07 07:08:48;;;;;;;;;;;;;;;;;;5110408;27;19930;-83
2022/06/07 07:11:15;;;;;;;;;;;;;;;;;;5133628;27;19975;-83
2022/06/07 07:13:41;;;;;;;;;;;;;;;;;;5129728;27;19926;-83
2022/06/07 07:16:07;;;;;;;;;;;;;;;;;;5099761;27;20367;-83
2022/06/07 07:18:33;;;;;;;;;;;;;;;;;;5117303;27;20280;-85
2022/06/07 07:21:00;;;;;;;;;;;;;;;;;;5120953;27;20652;-84
2022/06/07 07:23:26;;;;;;;;;;;;;;;;;;5111601;27;19977;-82
2022/06/07 07:25:52;;;;;;;;;;;;;;;;;;5114243;27;19974;-84
2022/06/07 07:28:18;;;;;;;;;;;;;;;;;;5096889;28;19931;-82
2022/06/07 07:30:44;;;;;;;;;;;;;;;;;;5108405;27;19923;-82
2022/06/07 07:33:10;;;;;;;;;;;;;;;;;;5103983;27;19924;-83
2022/06/07 07:35:36;;;;;;;;;;;;;;;;;;5121702;27;20015;-83
2022/06/07 07:38:02;;;;;;;;;;;;;;;;;;5113260;27;19924;-83
2022/06/07 07:40:28;;;;;;;;;;;;;;;;;;5095145;28;19971;-83
2022/06/07 07:42:54;;;;;;;;;;;;;;;;;;5123615;27;19931;-83
2022/06/07 07:45:20;;;;;;;;;;;;;;;;;;5115289;27;19923;-86
2022/06/07 07:47:46;;;;;;;;;;;;;;;;;;5123265;27;19923;-86
2022/06/07 07:50:12;;;;;;;;;;;;;;;;;;5122467;27;19924;-83
2022/06/07 07:52:38;;;;;;;;;;;;;;;;;;5116379;27;19935;-83
2022/06/07 07:55:04;;;;;;;;;;;;;;;;;;5116846;27;19924;-83
2022/06/07 07:57:31;;;;;;;;;;;;;;;;;;5120854;27;19927;-84
2022/06/07 07:59:57;;;;;;;;;;;;;;;;;;5114136;27;19931;-85
2022/06/07 08:02:23;;;;;;;;;;;;;;;;;;5112324;27;19924;-84
2022/06/07 08:04:49;;;;;;;;;;;;;;;;;;5119597;27;20243;-83
2022/06/07 08:07:16;;;;;;;;;;;;;;;;;;5132609;27;20407;-82
2022/06/07 08:09:42;;;;;;;;;;;;;;;;;;5113386;27;19927;-83
2022/06/07 08:12:08;;;;;;;;;;;;;;;;;;5120559;27;19976;-83
2022/06/07 08:14:36;;;;;;;;;;;;;;;;;;5126253;27;20329;-86
2022/06/07 08:17:03;;;;;;;;;;;;;;;;;;5129599;27;19955;-86
2022/06/07 08:19:29;;;;;;;;;;;;;;;;;;5103827;27;19927;-94
2022/06/07 08:21:55;;;;;;;;;;;;;;;;;;5116218;28;19989;-95
2022/06/07 08:24:21;;;;;;;;;;;;;;;;;;5133197;27;19927;-93
2022/06/07 08:26:48;;;;;;;;;;;;;;;;;;5129859;27;19927;-95
2022/06/07 08:29:14;;;;;;;;;;;;;;;;;;5112764;28;19970;-91
2022/06/07 08:31:40;;;;;;;;;;;;;;;;;;5117114;27;19972;-87
2022/06/07 08:39:36;;;;;;;;;;;;;;;;;;5114884;28;19931;-88
2022/06/07 08:42:02;;;;;;;;;;;;;;;;;;5112493;28;19924;-90
2022/06/07 08:44:28;;;;;;;;;;;;;;;;;;5112154;28;19963;-95
2022/06/07 08:46:53;;;;;;;;;;;;;;;;;;5115086;28;19976;-95
2022/06/07 08:49:19;;;;;;;;;;;;;;;;;;5132753;28;19998;-96
2022/06/07 08:51:45;;;;;;;;;;;;;;;;;;5112747;28;20294;-92
2022/06/07 08:54:11;;;;;;;;;;;;;;;;;;5131185;27;19927;-91
2022/06/07 08:56:37;;;;;;;;;;;;;;;;;;5131986;27;19924;-90
2022/06/07 08:59:03;;;;;;;;;;;;;;;;;;5118977;28;19969;-94
2022/06/07 09:01:29;;;;;;;;;;;;;;;;;;5138210;27;19973;-94
2022/06/07 09:03:55;;;;;;;;;;;;;;;;;;5115277;28;20278;-94
2022/06/07 09:06:21;;;;;;;;;;;;;;;;;;5120345;27;19952;-92
2022/06/07 09:08:47;;;;;;;;;;;;;;;;;;5128260;27;19965;-91
2022/06/07 09:13:58;;;;;;;;;;;;;;;;;;5128755;27;20435;-87
2022/06/07 09:16:24;;;;;;;;;;;;;;;;;;5116875;27;20002;-88
2022/06/07 09:18:50;;;;;;;;;;;;;;;;;;5113842;28;19966;-88
2022/06/07 09:21:15;;;;;;;;;;;;;;;;;;5125119;27;19930;-93
2022/06/07 09:23:43;;;;;;;;;;;;;;;;;;5115474;28;19924;-85
2022/06/07 09:26:08;;;;;;;;;;;;;;;;;;5124501;27;20381;-87
2022/06/07 09:28:34;;;;;;;;;;;;;;;;;;5125910;27;19924;-85
2022/06/07 09:31:00;;;;;;;;;;;;;;;;;;5114238;27;19924;-87
2022/06/07 09:33:26;;;;;;;;;;;;;;;;;;5115010;27;19930;-86
2022/06/07 09:35:52;;;;;;;;;;;;;;;;;;5123489;27;19963;-87
2022/06/07 09:38:18;;;;;;;;;;;;;;;;;;5117282;27;19924;-87
2022/06/07 09:40:44;;;;;;;;;;;;;;;;;;5133242;27;19930;-88
2022/06/07 09:43:11;;;;;;;;;;;;;;;;;;5123200;27;19974;-94
2022/06/07 09:45:37;;;;;;;;;;;;;;;;;;5106819;27;19924;-91
2022/06/07 09:48:02;;;;;;;;;;;;;;;;;;5133874;27;19930;-94
2022/06/07 09:50:28;;;;;;;;;;;;;;;;;;5105422;28;20008;-81
2022/06/07 09:52:54;;;;;;;;;;;;;;;;;;5118316;27;19928;-82
2022/06/07 09:55:20;;;;;;;;;;;;;;;;;;5124844;27;19928;-79
2022/06/07 09:57:46;;;;;;;;;;;;;;;;;;5126271;27;19930;-83
2022/06/07 10:00:16;;;;;;;;;;;;;;;;;;5117330;27;19966;-83
2022/06/07 10:02:42;;;;;;;;;;;;;;;;;;5105772;27;20385;-83
2022/06/07 10:05:08;;;;;;;;;;;;;;;;;;5101178;27;19923;-86
2022/06/07 10:07:34;;;;;;;;;;;;;;;;;;5120091;27;19924;-82
2022/06/07 10:10:00;;;;;;;;;;;;;;;;;;5113026;28;20278;-84
2022/06/07 10:12:26;;;;;;;;;;;;;;;;;;5114995;27;20006;-83
2022/06/07 10:14:52;;;;;;;;;;;;;;;;;;5114812;27;19924;-81
2022/06/07 10:17:18;;;;;;;;;;;;;;;;;;5123932;27;19923;-86
2022/06/07 10:19:44;;;;;;;;;;;;;;;;;;5113502;27;20386;-84
2022/06/07 10:22:10;;;;;;;;;;;;;;;;;;5116618;27;19931;-88
2022/06/07 10:24:36;;;;;;;;;;;;;;;;;;5110318;28;20403;-82
2022/06/07 10:27:02;;;;;;;;;;;;;;;;;;5110058;27;20308;-80
2022/06/07 10:29:31;;;;;;;;;;;;;;;;;;5110380;27;19930;-83
2022/06/07 10:31:57;;;;;;;;;;;;;;;;;;5128489;27;20351;-82
2022/06/07 10:34:23;;;;;;;;;;;;;;;;;;5118929;27;19969;-85
2022/06/07 10:36:48;;;;;;;;;;;;;;;;;;5112842;27;19924;-83
2022/06/07 10:39:14;;;;;;;;;;;;;;;;;;5125088;27;19984;-82
2022/06/07 10:41:41;;;;;;;;;;;;;;;;;;5128665;27;19927;-83
2022/06/07 10:44:07;;;;;;;;;;;;;;;;;;5111707;27;19978;-83
2022/06/07 10:46:33;;;;;;;;;;;;;;;;;;5105872;27;20006;-82
2022/06/07 10:48:59;;;;;;;;;;;;;;;;;;5123125;27;19927;-83
2022/06/07 10:54:10;;;;;;;;;;;;;;;;;;5132371;27;20034;-83
2022/06/07 10:56:36;;;;;;;;;;;;;;;;;;5115393;27;19958;-84
2022/06/07 10:59:02;;;;;;;;;;;;;;;;;;5112303;27;20543;-85
2022/06/07 11:01:27;;;;;;;;;;;;;;;;;;5131437;27;20388;-82
2022/06/07 11:03:53;;;;;;;;;;;;;;;;;;5123562;27;19978;-81
2022/06/07 11:09:19;;;;;;;;;;;;;;;;;;5111920;28;19919;-80
2022/06/07 11:11:45;;;;;;;;;;;;;;;;;;5112095;27;19939;-81
2022/06/07 11:14:11;;;;;;;;;;;;;;;;;;5126275;27;19931;-81
2022/06/07 11:16:37;;;;;;;;;;;;;;;;;;5114605;27;19923;-81
2022/06/07 11:19:03;;;;;;;;;;;;;;;;;;5114600;27;19934;-82
2022/06/07 11:21:29;;;;;;;;;;;;;;;;;;5115416;27;19924;-83
2022/06/07 11:23:55;;;;;;;;;;;;;;;;;;5123060;27;19924;-81
2022/06/07 11:26:21;;;;;;;;;;;;;;;;;;5119991;27;20011;-79
2022/06/07 11:28:47;;;;;;;;;;;;;;;;;;5110859;27;20392;-80
2022/06/07 11:31:13;;;;;;;;;;;;;;;;;;5110844;28;20362;-83
2022/06/07 11:33:42;;;;;;;;;;;;;;;;;;5118103;27;19979;-81
2022/06/07 11:36:08;;;;;;;;;;;;;;;;;;5123160;27;19928;-81
2022/06/07 11:38:34;;;;;;;;;;;;;;;;;;5114237;27;19924;-81
2022/06/07 11:43:44;;;;;;;;;;;;;;;;;;5133683;27;19931;-83
2022/06/07 11:46:10;;;;;;;;;;;;;;;;;;5111528;27;19923;-84
2022/06/07 11:48:36;;;;;;;;;;;;;;;;;;5123149;27;19950;-85
2022/06/07 11:51:03;;;;;;;;;;;;;;;;;;5098198;27;19923;-84
2022/06/07 11:53:29;;;;;;;;;;;;;;;;;;5114614;27;19924;-83
2022/06/07 11:55:55;;;;;;;;;;;;;;;;;;5130615;27;20061;-84
2022/06/07 11:58:21;;;;;;;;;;;;;;;;;;5102533;27;20000;-82
2022/06/07 12:00:47;;;;;;;;;;;;;;;;;;5130182;27;19931;-89
2022/06/07 12:03:13;;;;;;;;;;;;;;;;;;5110808;27;20002;-83
2022/06/07 12:05:40;;;;;;;;;;;;;;;;;;5113710;27;19966;-81
2022/06/07 12:08:06;;;;;;;;;;;;;;;;;;5113367;27;20326;-82
2022/06/07 12:10:32;;;;;;;;;;;;;;;;;;5128626;27;20023;-81
2022/06/07 12:12:58;;;;;;;;;;;;;;;;;;5112897;27;19928;-82
2022/06/07 12:15:24;;;;;;;;;;;;;;;;;;5122734;27;20290;-82
2022/06/07 12:17:50;;;;;;;;;;;;;;;;;;5116675;27;19934;-86
2022/06/07 12:20:16;;;;;;;;;;;;;;;;;;5114617;27;20419;-81
2022/06/07 12:22:42;;;;;;;;;;;;;;;;;;5109063;27;20438;-81
2022/06/07 12:25:11;;;;;;;;;;;;;;;;;;5139639;27;19923;-80
2022/06/07 12:27:37;;;;;;;;;;;;;;;;;;5122844;27;19972;-82
2022/06/07 12:30:03;;;;;;;;;;;;;;;;;;5122700;27;19923;-86
2022/06/07 12:32:29;;;;;;;;;;;;;;;;;;5133528;27;19931;-85
2022/06/07 12:34:55;;;;;;;;;;;;;;;;;;5117636;27;19944;-81
2022/06/07 12:37:21;;;;;;;;;;;;;;;;;;5117440;27;20378;-81
2022/06/07 12:39:47;;;;;;;;;;;;;;;;;;5120704;27;20409;-80
2022/06/07 12:42:14;;;;;;;;;;;;;;;;;;5105562;27;20373;-86
2022/06/07 12:44:43;;;;;;;;;;;;;;;;;;5109559;27;19924;-79
2022/06/07 12:47:09;;;;;;;;;;;;;;;;;;5128753;27;19934;-79
2022/06/07 12:49:35;;;;;;;;;;;;;;;;;;5120984;27;19923;-82
2022/06/07 12:52:01;;;;;;;;;;;;;;;;;;5116002;27;19923;-81
2022/06/07 12:54:28;;;;;;;;;;;;;;;;;;5145015;27;19931;-80
2022/06/07 12:56:54;;;;;;;;;;;;;;;;;;5132170;27;20420;-80
2022/06/07 12:59:21;;;;;;;;;;;;;;;;;;5132118;27;19924;-78
2022/06/07 13:01:48;;;;;;;;;;;;;;;;;;5105715;27;19923;-77
2022/06/07 13:04:14;;;;;;;;;;;;;;;;;;5117131;27;19927;-79
2022/06/07 13:06:40;;;;;;;;;;;;;;;;;;5132636;27;19976;-78
2022/06/07 13:09:06;;;;;;;;;;;;;;;;;;5116093;27;19928;-77
2022/06/07 13:11:32;;;;;;;;;;;;;;;;;;5132650;27;20018;-80
2022/06/07 13:14:00;;;;;;;;;;;;;;;;;;5130608;27;19923;-80
2022/06/07 13:16:26;;;;;;;;;;;;;;;;;;5130286;27;19923;-82
2022/06/07 13:18:52;;;;;;;;;;;;;;;;;;5136350;27;19931;-81
2022/06/07 13:21:18;;;;;;;;;;;;;;;;;;5126480;27;19971;-79
2022/06/07 13:23:44;;;;;;;;;;;;;;;;;;5137051;27;19926;-83
2022/06/07 13:26:10;;;;;;;;;;;;;;;;;;5136635;27;20429;-81
2022/06/07 13:28:36;;;;;;;;;;;;;;;;;;5138008;27;20362;-82
2022/06/07 13:31:02;;;;;;;;;;;;;;;;;;5108056;27;20011;-84
2022/06/07 13:33:28;;;;;;;;;;;;;;;;;;5139499;27;19924;-75
2022/06/07 13:35:57;;;;;;;;;;;;;;;;;;5129356;27;20404;-81
2022/06/07 13:38:23;;;;;;;;;;;;;;;;;;5127457;27;19931;-81
2022/06/07 13:40:49;;;;;;;;;;;;;;;;;;5108240;27;19923;-80
2022/06/07 13:43:15;;;;;;;;;;;;;;;;;;5117333;27;20014;-81
2022/06/07 13:45:41;;;;;;;;;;;;;;;;;;5118278;27;20298;-82
2022/06/07 13:48:07;;;;;;;;;;;;;;;;;;5108299;27;19924;-82
2022/06/07 13:53:21;;;;;;;;;;;;;;;;;;5118659;27;20371;-82
2022/06/07 13:55:47;;;;;;;;;;;;;;;;;;5100815;27;20354;-81
2022/06/07 13:58:13;;;;;;;;;;;;;;;;;;5119210;27;19931;-81
2022/06/07 14:00:39;;;;;;;;;;;;;;;;;;5119983;27;19927;-82
2022/06/07 14:03:05;;;;;;;;;;;;;;;;;;5102229;27;19927;-81
2022/06/07 14:05:31;;;;;;;;;;;;;;;;;;5117693;27;20270;-82
2022/06/07 14:07:57;;;;;;;;;;;;;;;;;;5117845;27;19946;-81
2022/06/07 14:10:23;;;;;;;;;;;;;;;;;;5133548;27;19923;-82
2022/06/07 14:12:49;;;;;;;;;;;;;;;;;;5109821;27;19938;-81
2022/06/07 14:15:15;;;;;;;;;;;;;;;;;;5124761;27;19923;-81
2022/06/07 14:17:41;;;;;;;;;;;;;;;;;;5117538;27;19972;-82
2022/06/07 14:20:08;;;;;;;;;;;;;;;;;;5133630;27;19923;-82
2022/06/07 14:22:34;;;;;;;;;;;;;;;;;;5116521;27;19971;-83
2022/06/07 14:25:00;;;;;;;;;;;;;;;;;;5126525;27;20409;-82
2022/06/07 14:27:26;;;;;;;;;;;;;;;;;;5114144;27;19927;-82
2022/06/07 14:29:53;;;;;;;;;;;;;;;;;;5120957;27;19930;-82
2022/06/07 14:32:19;;;;;;;;;;;;;;;;;;5131964;27;19923;-83
2022/06/07 14:34:45;;;;;;;;;;;;;;;;;;5107516;27;20028;-83
2022/06/07 14:37:11;;;;;;;;;;;;;;;;;;5128939;27;19923;-83
2022/06/07 14:39:37;;;;;;;;;;;;;;;;;;5137572;27;19922;-82
2022/06/07 14:42:03;;;;;;;;;;;;;;;;;;5116635;27;20370;-84
2022/06/07 14:44:29;;;;;;;;;;;;;;;;;;5117829;27;19977;-80
2022/06/07 14:46:56;;;;;;;;;;;;;;;;;;5135855;27;19983;-79
2022/06/07 14:49:23;;;;;;;;;;;;;;;;;;5121751;27;19931;-82
2022/06/07 14:51:49;;;;;;;;;;;;;;;;;;5117132;27;19931;-81
2022/06/07 14:54:14;;;;;;;;;;;;;;;;;;5105966;27;19923;-81
2022/06/07 14:56:40;;;;;;;;;;;;;;;;;;5102441;27;19959;-81
2022/06/07 14:59:06;;;;;;;;;;;;;;;;;;5120232;27;19930;-81
2022/06/07 15:01:32;;;;;;;;;;;;;;;;;;5115844;27;19988;-81
2022/06/07 15:03:58;;;;;;;;;;;;;;;;;;5117032;27;19969;-83
2022/06/07 15:06:25;;;;;;;;;;;;;;;;;;5116765;27;19962;-81
2022/06/07 15:08:54;;;;;;;;;;;;;;;;;;5124030;27;19923;-80
2022/06/07 15:11:20;;;;;;;;;;;;;;;;;;5100340;27;19972;-81
2022/06/07 15:13:46;;;;;;;;;;;;;;;;;;5099003;27;20014;-81
2022/06/07 15:16:12;;;;;;;;;;;;;;;;;;5116324;27;19924;-81
2022/06/07 15:18:38;;;;;;;;;;;;;;;;;;5123812;27;19931;-81
2022/06/07 15:21:04;;;;;;;;;;;;;;;;;;5128733;27;19931;-81
2022/06/07 15:23:30;;;;;;;;;;;;;;;;;;5104191;27;19923;-81
2022/06/07 15:25:57;;;;;;;;;;;;;;;;;;5118898;27;20012;-76
2022/06/07 15:28:23;;;;;;;;;;;;;;;;;;5131911;27;20034;-82
2022/06/07 15:30:49;;;;;;;;;;;;;;;;;;5109380;27;19923;-81
2022/06/07 15:33:15;;;;;;;;;;;;;;;;;;5098974;27;19931;-84
2022/06/07 15:35:41;;;;;;;;;;;;;;;;;;5099597;27;19971;-82
2022/06/07 15:38:07;;;;;;;;;;;;;;;;;;5115597;27;20002;-83
2022/06/07 15:40:33;;;;;;;;;;;;;;;;;;5106520;27;20007;-82
2022/06/07 15:42:58;;;;;;;;;;;;;;;;;;5131654;27;19972;-81
2022/06/07 15:45:24;;;;;;;;;;;;;;;;;;5110744;27;20381;-82
2022/06/07 15:47:50;;;;;;;;;;;;;;;;;;5114857;27;19973;-82
2022/06/07 15:50:16;;;;;;;;;;;;;;;;;;5105785;27;19937;-84
2022/06/07 15:52:42;;;;;;;;;;;;;;;;;;5115510;27;19923;-85
2022/06/07 15:55:08;;;;;;;;;;;;;;;;;;5113788;27;19946;-89
2022/06/07 16:00:20;;;;;;;;;;;;;;;;;;5119540;27;19975;-82
2022/06/07 16:02:46;;;;;;;;;;;;;;;;;;5116068;27;19923;-85
2022/06/07 16:05:14;;;;;;;;;;;;;;;;;;5115321;27;20427;-82
2022/06/07 16:07:40;;;;;;;;;;;;;;;;;;5119647;27;19982;-80
2022/06/07 16:10:06;;;;;;;;;;;;;;;;;;5144452;27;19969;-80
2022/06/07 16:12:31;;;;;;;;;;;;;;;;;;5127683;27;19931;-83
2022/06/07 16:14:57;;;;;;;;;;;;;;;;;;5113346;27;19929;-79
2022/06/07 16:17:24;;;;;;;;;;;;;;;;;;5128386;27;19923;-79
2022/06/07 16:19:50;;;;;;;;;;;;;;;;;;5108670;27;19937;-83
2022/06/07 16:22:15;;;;;;;;;;;;;;;;;;5126996;27;20006;-82
2022/06/07 16:24:41;;;;;;;;;;;;;;;;;;5131227;27;19923;-85
2022/06/07 16:33:18;;;;;;;;;;;;;;;;;;5113011;27;19923;-95
2022/06/07 16:35:31;;;;;;;;;;;;;;;;;;5122819;28;20079;-91
2022/06/07 16:37:58;;;;;;;;;;;;;;;;;;5109312;27;19923;-92
2022/06/07 16:40:25;;;;;;;;;;;;;;;;;;5118662;27;19923;-94
2022/06/07 16:42:51;;;;;;;;;;;;;;;;;;5118151;27;19923;-92
2022/06/07 16:45:17;;;;;;;;;;;;;;;;;;5115479;28;20014;-91
2022/06/07 16:47:49;;;;;;;;;;;;;;;;;;5120924;27;19923;-94
2022/06/07 16:50:30;;;;;;;;;;;;;;;;;;5118433;27;19930;-95
2022/06/07 16:52:56;;;;;;;;;;;;;;;;;;5100818;28;19923;-90
2022/06/07 16:55:22;;;;;;;;;;;;;;;;;;5124924;27;20273;-95
2022/06/07 16:57:48;;;;;;;;;;;;;;;;;;5125372;27;20039;-91
2022/06/07 17:00:14;;;;;;;;;;;;;;;;;;5118211;27;19931;-84
2022/06/07 17:02:40;;;;;;;;;;;;;;;;;;5125813;27;19930;-87
2022/06/07 17:05:06;;;;;;;;;;;;;;;;;;5115550;27;20121;-94
2022/06/07 17:07:33;;;;;;;;;;;;;;;;;;5131502;27;20441;-89
2022/06/07 17:09:59;;;;;;;;;;;;;;;;;;5116308;28;19930;-90
2022/06/07 17:12:25;;;;;;;;;;;;;;;;;;5129730;27;19944;-83
2022/06/07 17:14:51;;;;;;;;;;;;;;;;;;5123846;27;20354;-83
2022/06/07 17:17:17;;;;;;;;;;;;;;;;;;5126153;28;20347;-90